Time;durP1;ratioP1;P1;durP2;ratioP2;P2;SDS_P1;SDS_P2;PMS_P1;PMS_P2;Temp;Humidity;BMP_temperature;BMP_pressure;BME280_temperature;BME280_humidity;BME280_pressure;Samples;Min_cycle;Max_cycle;Signal;HPM_P1;HPM_P2
2023/03/02 00:02:00;;;;;;;20.30;13.63;;;1.70;1.00;;;;;;5049167;28;20482;-54
2023/03/02 00:04:38;;;;;;;20.37;16.10;;;1.70;1.00;;;;;;5055208;28;20533;-56
2023/03/02 00:07:07;;;;;;;24.57;16.40;;;1.60;1.00;;;;;;5049953;28;20441;-56
2023/03/02 00:09:33;;;;;;;22.10;14.67;;;1.70;1.00;;;;;;5047823;28;20454;-55
2023/03/02 00:11:59;;;;;;;23.80;16.93;;;1.80;1.00;;;;;;5052979;28;20456;-54
2023/03/02 00:14:24;;;;;;;25.30;15.37;;;1.70;1.00;;;;;;5054620;28;20480;-53
2023/03/02 00:16:50;;;;;;;27.23;16.43;;;1.30;1.00;;;;;;5054306;28;20199;-55
2023/03/02 00:19:16;;;;;;;24.73;16.30;;;1.60;1.00;;;;;;5047728;28;20195;-55
2023/03/02 00:21:42;;;;;;;23.30;15.53;;;1.50;1.00;;;;;;5054101;28;20223;-55
2023/03/02 00:24:07;;;;;;;22.70;15.37;;;1.40;1.00;;;;;;5057121;28;20190;-55
2023/03/02 00:26:34;;;;;;;26.57;15.27;;;1.50;1.00;;;;;;5045588;28;20453;-54
2023/03/02 00:29:00;;;;;;;21.10;14.97;;;1.50;1.00;;;;;;5048429;28;20207;-56
2023/03/02 00:31:26;;;;;;;24.07;15.87;;;1.50;1.00;;;;;;5054658;28;20452;-54
2023/03/02 00:33:55;;;;;;;28.23;17.13;;;1.50;1.00;;;;;;5055806;28;20452;-54
2023/03/02 00:36:22;;;;;;;25.63;16.00;;;1.50;1.00;;;;;;5062639;28;20215;-54
2023/03/02 00:38:50;;;;;;;24.07;14.97;;;1.60;1.00;;;;;;5058353;28;20442;-55
2023/03/02 00:41:17;;;;;;;23.53;15.00;;;1.60;1.00;;;;;;5051245;28;20473;-55
2023/03/02 00:43:43;;;;;;;22.83;15.27;;;1.40;1.00;;;;;;5053758;28;21198;-55
2023/03/02 00:46:11;;;;;;;22.83;16.07;;;1.40;1.00;;;;;;5054852;28;20451;-54
2023/03/02 00:48:37;;;;;;;20.00;15.80;;;1.40;1.00;;;;;;5059843;28;20195;-56
2023/03/02 00:51:03;;;;;;;22.93;16.00;;;1.40;1.00;;;;;;5058752;28;20469;-54
2023/03/02 00:53:28;;;;;;;23.20;16.00;;;1.40;1.00;;;;;;5062765;28;20341;-54
2023/03/02 00:55:54;;;;;;;24.50;16.97;;;1.40;1.00;;;;;;5054153;28;20441;-54
2023/03/02 00:58:20;;;;;;;23.33;17.60;;;1.40;1.00;;;;;;5061209;28;20657;-55
2023/03/02 01:00:46;;;;;;;25.17;16.43;;;1.30;1.00;;;;;;5054479;28;20297;-56
2023/03/02 01:03:12;;;;;;;24.50;17.03;;;1.30;1.00;;;;;;5058946;28;20848;-54
2023/03/02 01:05:38;;;;;;;21.93;15.00;;;1.30;1.00;;;;;;5054317;28;20449;-55
2023/03/02 01:08:03;;;;;;;21.60;15.33;;;1.30;1.00;;;;;;5056272;28;20282;-54
2023/03/02 01:10:33;;;;;;;21.70;15.30;;;1.40;1.00;;;;;;5055901;28;20194;-56
2023/03/02 01:12:59;;;;;;;23.53;14.80;;;1.30;1.00;;;;;;5058320;28;20454;-56
2023/03/02 01:15:25;;;;;;;20.20;14.97;;;1.20;1.00;;;;;;5058852;28;20444;-55
2023/03/02 01:17:51;;;;;;;19.73;14.13;;;1.20;1.00;;;;;;5056418;28;20191;-53
2023/03/02 01:20:17;;;;;;;23.60;13.57;;;1.20;1.00;;;;;;5059788;28;21179;-54
2023/03/02 01:22:43;;;;;;;18.97;13.63;;;1.10;1.00;;;;;;5059578;28;20813;-55
2023/03/02 01:25:10;;;;;;;21.80;14.67;;;1.10;1.00;;;;;;5049046;28;20452;-55
2023/03/02 01:27:36;;;;;;;22.03;14.50;;;1.00;1.00;;;;;;5047770;28;20461;-54
2023/03/02 01:30:02;;;;;;;27.00;15.43;;;1.00;1.00;;;;;;5047635;28;20454;-56
2023/03/02 01:32:28;;;;;;;24.20;15.47;;;1.00;1.00;;;;;;5048350;28;20451;-55
2023/03/02 01:34:54;;;;;;;19.47;13.30;;;1.00;1.00;;;;;;5050125;28;20969;-55
2023/03/02 01:37:21;;;;;;;22.37;14.97;;;1.00;1.00;;;;;;5049246;28;20273;-54
2023/03/02 01:39:48;;;;;;;18.03;13.20;;;1.00;1.00;;;;;;5058815;28;20501;-55
2023/03/02 01:42:13;;;;;;;21.03;14.50;;;1.00;1.00;;;;;;5058475;28;20558;-54
2023/03/02 01:44:49;;;;;;;22.93;15.67;;;1.10;1.00;;;;;;5057055;28;20550;-55
2023/03/02 01:47:24;;;;;;;24.63;15.37;;;1.00;1.00;;;;;;5053177;28;20266;-54
2023/03/02 01:50:21;;;;;;;23.80;15.03;;;1.00;1.00;;;;;;5060580;28;20433;-55
2023/03/02 01:52:48;;;;;;;23.97;15.30;;;1.00;1.00;;;;;;5049278;28;20473;-54
2023/03/02 01:55:17;;;;;;;20.80;13.90;;;0.90;1.00;;;;;;5056052;28;20453;-55
2023/03/02 01:57:46;;;;;;;20.87;13.90;;;1.00;1.00;;;;;;5054800;28;20477;-54
2023/03/02 02:00:18;;;;;;;25.50;15.97;;;1.00;1.00;;;;;;5062163;28;20548;-55
2023/03/02 02:02:44;;;;;;;23.80;15.20;;;1.00;1.00;;;;;;5056851;28;20911;-55
2023/03/02 02:05:16;;;;;;;25.60;15.33;;;1.00;1.00;;;;;;5062236;28;20446;-54
2023/03/02 02:07:42;;;;;;;24.40;14.47;;;0.90;1.00;;;;;;5051628;28;20450;-55
2023/03/02 02:10:09;;;;;;;28.70;15.90;;;0.90;1.00;;;;;;5056908;28;20823;-54
2023/03/02 02:12:35;;;;;;;23.20;16.47;;;0.80;1.00;;;;;;5059207;28;20451;-55
2023/03/02 02:15:01;;;;;;;22.83;14.80;;;0.80;1.00;;;;;;5059494;28;20445;-55
2023/03/02 02:17:30;;;;;;;23.97;13.50;;;0.80;1.00;;;;;;5049526;28;20557;-55
2023/03/02 02:20:22;;;;;;;25.23;15.10;;;0.70;1.00;;;;;;5060319;28;20464;-55
2023/03/02 02:22:53;;;;;;;21.50;15.20;;;0.80;1.00;;;;;;5058704;28;20441;-54
2023/03/02 02:25:51;;;;;;;23.73;15.10;;;0.80;1.00;;;;;;5058040;28;20912;-54
2023/03/02 02:28:34;;;;;;;24.03;15.57;;;0.70;1.00;;;;;;5021311;28;20523;-54
2023/03/02 02:31:21;;;;;;;22.90;15.70;;;0.70;1.00;;;;;;5055679;28;20481;-54
2023/03/02 02:33:51;;;;;;;21.00;15.50;;;0.60;1.00;;;;;;5058313;28;20450;-55
2023/03/02 02:36:31;;;;;;;25.10;14.93;;;0.60;1.00;;;;;;5056047;28;20807;-55
2023/03/02 02:39:00;;;;;;;24.40;14.90;;;0.60;1.00;;;;;;5054740;28;20452;-54
2023/03/02 02:41:33;;;;;;;21.03;14.20;;;0.60;1.00;;;;;;5052293;28;20504;-54
2023/03/02 02:43:58;;;;;;;22.97;14.97;;;0.70;1.00;;;;;;5053609;28;20451;-55
2023/03/02 02:46:24;;;;;;;22.10;14.87;;;0.60;1.00;;;;;;5052559;28;20868;-54
2023/03/02 02:48:51;;;;;;;24.17;15.50;;;0.60;1.00;;;;;;5057926;28;20242;-53
2023/03/02 02:51:24;;;;;;;19.33;14.33;;;0.70;1.00;;;;;;5064224;28;20484;-55
2023/03/02 02:53:50;;;;;;;28.60;16.40;;;0.60;1.00;;;;;;5061582;28;20506;-55
2023/03/02 02:56:18;;;;;;;21.53;14.47;;;0.60;1.00;;;;;;5060131;28;20919;-55
2023/03/02 02:58:50;;;;;;;23.23;15.17;;;0.60;1.00;;;;;;5056126;28;20199;-54
2023/03/02 03:01:19;;;;;;;28.67;16.40;;;0.60;1.00;;;;;;5056817;28;20517;-56
2023/03/02 03:03:54;;;;;;;23.10;15.33;;;0.70;1.00;;;;;;5056827;28;21224;-55
2023/03/02 03:06:26;;;;;;;25.03;16.70;;;0.60;1.00;;;;;;5053533;28;20470;-54
2023/03/02 03:08:55;;;;;;;22.60;16.27;;;0.70;1.00;;;;;;5054932;28;20453;-55
2023/03/02 03:11:25;;;;;;;24.57;16.13;;;0.60;1.00;;;;;;5050797;28;20445;-55
2023/03/02 03:14:09;;;;;;;25.23;15.43;;;0.60;1.00;;;;;;5056196;28;20433;-55
2023/03/02 03:16:37;;;;;;;25.60;14.17;;;0.60;1.00;;;;;;5051789;28;20452;-53
2023/03/02 03:19:08;;;;;;;23.73;16.43;;;0.60;1.00;;;;;;5044694;28;20487;-55
2023/03/02 03:21:35;;;;;;;23.03;15.30;;;0.60;1.00;;;;;;5050427;28;20953;-54
2023/03/02 03:24:00;;;;;;;27.40;16.60;;;0.60;1.00;;;;;;5045433;28;20453;-54
2023/03/02 03:26:26;;;;;;;23.43;15.73;;;0.60;1.00;;;;;;5043627;28;20457;-55
2023/03/02 03:28:52;;;;;;;22.63;15.97;;;0.60;1.00;;;;;;5047341;28;20192;-55
2023/03/02 03:31:17;;;;;;;21.50;14.30;;;0.50;1.00;;;;;;5046933;28;20604;-54
2023/03/02 03:33:43;;;;;;;20.87;14.73;;;0.50;1.00;;;;;;5041814;28;20672;-55
2023/03/02 03:36:09;;;;;;;21.63;15.20;;;0.40;1.00;;;;;;5047074;28;20748;-53
2023/03/02 03:38:35;;;;;;;22.30;15.07;;;0.40;1.00;;;;;;5046630;28;21606;-55
2023/03/02 03:41:00;;;;;;;22.33;15.50;;;0.40;1.00;;;;;;5055029;28;20265;-55
2023/03/02 03:43:26;;;;;;;22.20;14.53;;;0.30;1.00;;;;;;5044447;28;20195;-55
2023/03/02 03:45:52;;;;;;;27.33;16.80;;;0.30;1.00;;;;;;5044130;28;20697;-54
2023/03/02 03:48:17;;;;;;;22.77;15.60;;;0.30;1.00;;;;;;5046147;28;20317;-55
2023/03/02 03:50:43;;;;;;;29.77;15.40;;;0.10;1.00;;;;;;5046804;28;20218;-54
2023/03/02 03:53:09;;;;;;;19.87;14.30;;;0.10;1.00;;;;;;5055020;28;20231;-54
2023/03/02 03:55:34;;;;;;;28.90;15.90;;;0.20;1.00;;;;;;5053735;28;20456;-55
2023/03/02 03:58:00;;;;;;;27.80;15.70;;;0.20;1.00;;;;;;5052075;28;20235;-55
2023/03/02 04:00:26;;;;;;;28.33;15.47;;;0.20;1.00;;;;;;5050361;28;20219;-55
2023/03/02 04:02:52;;;;;;;24.63;15.20;;;0.20;1.00;;;;;;5041542;28;20448;-54
2023/03/02 04:05:17;;;;;;;24.27;15.13;;;0.10;1.00;;;;;;5054558;28;20180;-54
2023/03/02 04:07:43;;;;;;;21.73;15.20;;;0.20;1.00;;;;;;5054160;28;20190;-57
2023/03/02 04:10:10;;;;;;;29.77;16.20;;;0.10;1.00;;;;;;5058264;28;20282;-55
2023/03/02 04:12:39;;;;;;;23.43;14.63;;;0.10;1.00;;;;;;5048823;28;20448;-54
2023/03/02 04:15:06;;;;;;;24.70;15.50;;;0.10;1.00;;;;;;5054676;28;20460;-53
2023/03/02 04:17:32;;;;;;;23.87;15.63;;;0.20;1.00;;;;;;5051970;28;20804;-55
2023/03/02 04:19:58;;;;;;;24.60;14.83;;;0.10;1.00;;;;;;5050863;28;20452;-56
2023/03/02 04:22:25;;;;;;;25.47;16.20;;;0.10;1.00;;;;;;5054942;28;20531;-54
2023/03/02 04:24:51;;;;;;;27.60;17.40;;;0.10;1.00;;;;;;5051274;28;20184;-55
2023/03/02 04:27:17;;;;;;;26.50;17.70;;;0.20;1.00;;;;;;5050652;28;20457;-56
2023/03/02 04:29:45;;;;;;;22.23;15.40;;;0.10;1.00;;;;;;5042893;28;20440;-56
2023/03/02 04:32:13;;;;;;;21.23;14.13;;;0.20;1.00;;;;;;5049503;28;20934;-56
2023/03/02 04:34:39;;;;;;;25.87;16.20;;;0.10;1.00;;;;;;5051656;28;20447;-54
2023/03/02 04:37:05;;;;;;;25.13;17.00;;;0.20;1.00;;;;;;5051581;28;20448;-55
2023/03/02 04:39:31;;;;;;;24.53;14.80;;;0.10;1.00;;;;;;5048361;28;20458;-54
2023/03/02 04:41:58;;;;;;;25.33;16.47;;;0.10;1.00;;;;;;5055030;28;20448;-54
2023/03/02 04:44:23;;;;;;;25.43;17.20;;;0.00;1.00;;;;;;5053642;28;20222;-56
2023/03/02 04:46:49;;;;;;;27.67;17.97;;;0.10;1.00;;;;;;5050878;28;20492;-54
2023/03/02 04:49:17;;;;;;;26.00;16.30;;;0.10;1.00;;;;;;5047674;28;20197;-52
2023/03/02 04:51:45;;;;;;;24.03;16.70;;;0.10;1.00;;;;;;5046063;28;20961;-53
2023/03/02 04:54:20;;;;;;;24.93;15.93;;;0.20;1.00;;;;;;5061621;28;20485;-53
2023/03/02 04:56:50;;;;;;;25.40;16.47;;;0.10;1.00;;;;;;5049173;28;20446;-54
2023/03/02 04:59:18;;;;;;;30.10;17.10;;;0.00;1.00;;;;;;5046501;28;20514;-55
2023/03/02 05:01:44;;;;;;;23.20;15.43;;;-0.10;1.00;;;;;;5050242;28;21162;-54
2023/03/02 05:04:11;;;;;;;22.17;14.80;;;-0.10;1.00;;;;;;5046129;28;20518;-56
2023/03/02 05:06:37;;;;;;;29.90;15.70;;;-0.10;1.00;;;;;;5044336;28;20947;-55
2023/03/02 05:09:03;;;;;;;29.23;17.70;;;-0.10;1.00;;;;;;5042799;28;20451;-52
2023/03/02 05:11:29;;;;;;;29.57;16.10;;;-0.10;1.00;;;;;;5045184;28;20301;-57
2023/03/02 05:14:00;;;;;;;27.90;17.00;;;-0.10;1.00;;;;;;5044478;28;20559;-53
2023/03/02 05:16:28;;;;;;;27.70;16.00;;;-0.10;1.00;;;;;;5047640;28;20275;-54
2023/03/02 05:18:54;;;;;;;26.53;17.10;;;-0.20;1.00;;;;;;5047128;28;20502;-52
2023/03/02 05:21:20;;;;;;;28.33;16.97;;;-0.20;1.00;;;;;;5047499;28;20477;-52
2023/03/02 05:23:47;;;;;;;26.97;16.47;;;-0.20;1.00;;;;;;5048698;28;20449;-52
2023/03/02 05:26:12;;;;;;;27.60;16.90;;;-0.20;1.00;;;;;;5051800;28;20436;-54
2023/03/02 05:28:39;;;;;;;26.60;16.67;;;-0.20;1.00;;;;;;5049430;28;20847;-53
2023/03/02 05:31:05;;;;;;;30.07;17.93;;;-0.20;1.00;;;;;;5060034;28;20545;-53
2023/03/02 05:33:31;;;;;;;27.30;16.53;;;-0.20;1.00;;;;;;5053949;28;20957;-54
2023/03/02 05:35:58;;;;;;;32.83;17.70;;;-0.30;1.00;;;;;;5053012;28;20500;-57
2023/03/02 05:38:23;;;;;;;24.80;17.03;;;-0.30;1.00;;;;;;5047446;28;20195;-52
2023/03/02 05:40:49;;;;;;;25.07;16.83;;;-0.30;1.00;;;;;;5052061;28;20475;-55
2023/03/02 05:43:18;;;;;;;30.63;18.17;;;-0.40;1.00;;;;;;5047380;28;20187;-54
2023/03/02 05:45:45;;;;;;;29.40;17.73;;;-0.30;1.00;;;;;;5050031;28;20200;-55
2023/03/02 05:48:12;;;;;;;24.37;17.13;;;-0.30;1.00;;;;;;5049093;28;20471;-55
2023/03/02 05:50:38;;;;;;;25.20;16.83;;;-0.30;1.00;;;;;;5047938;28;20456;-54
2023/03/02 05:53:03;;;;;;;33.10;18.93;;;-0.30;1.00;;;;;;5050608;28;20572;-55
2023/03/02 05:55:29;;;;;;;26.07;17.27;;;-0.30;1.00;;;;;;5050370;28;20552;-54
2023/03/02 05:57:55;;;;;;;30.70;18.63;;;-0.30;1.00;;;;;;5055861;28;20456;-51
2023/03/02 06:00:21;;;;;;;27.67;18.10;;;-0.30;1.00;;;;;;5057806;28;20236;-53
2023/03/02 06:02:47;;;;;;;31.43;19.83;;;-0.30;1.00;;;;;;5052010;28;20536;-52
2023/03/02 06:05:16;;;;;;;31.03;18.13;;;-0.30;1.00;;;;;;5049759;28;20444;-53
2023/03/02 06:07:43;;;;;;;32.10;18.17;;;-0.30;1.00;;;;;;5046992;28;20536;-52
2023/03/02 06:10:10;;;;;;;29.10;19.53;;;-0.30;1.00;;;;;;5058832;28;20458;-56
2023/03/02 06:12:37;;;;;;;27.63;16.20;;;0.10;1.00;;;;;;5055728;28;20446;-54
2023/03/02 06:15:04;;;;;;;36.30;20.00;;;-0.20;1.00;;;;;;5053017;28;20438;-54
2023/03/02 06:17:30;;;;;;;30.40;18.60;;;-0.20;1.00;;;;;;5054669;28;20472;-56
2023/03/02 06:19:55;;;;;;;32.93;19.23;;;-0.30;1.00;;;;;;5049629;28;20485;-55
2023/03/02 06:22:21;;;;;;;28.73;17.97;;;-0.20;1.00;;;;;;5050216;28;20192;-54
2023/03/02 06:24:46;;;;;;;30.93;20.30;;;-0.20;1.00;;;;;;5048490;28;20191;-56
2023/03/02 06:27:13;;;;;;;36.17;23.27;;;-0.10;1.00;;;;;;5048786;28;20173;-55
2023/03/02 06:29:38;;;;;;;30.73;21.50;;;-0.10;1.00;;;;;;5049739;28;20220;-57
2023/03/02 06:32:04;;;;;;;36.87;21.70;;;0.00;1.00;;;;;;5052739;28;20485;-55
2023/03/02 06:34:30;;;;;;;33.20;20.90;;;0.00;1.00;;;;;;5048464;28;20190;-54
2023/03/02 06:36:56;;;;;;;31.87;20.30;;;0.10;1.00;;;;;;5050259;28;20450;-55
2023/03/02 06:39:22;;;;;;;36.60;23.83;;;0.10;1.00;;;;;;5050131;28;20223;-55
2023/03/02 06:41:48;;;;;;;36.87;22.00;;;0.20;1.00;;;;;;5046892;28;20306;-55
2023/03/02 06:44:15;;;;;;;30.43;20.93;;;0.20;1.00;;;;;;5050562;28;20458;-56
2023/03/02 06:46:41;;;;;;;29.23;19.20;;;0.30;1.00;;;;;;5046295;28;20484;-54
2023/03/02 06:49:08;;;;;;;28.03;18.10;;;0.30;1.00;;;;;;5046678;28;20802;-56
2023/03/02 06:51:34;;;;;;;30.20;18.17;;;0.40;1.00;;;;;;5049753;28;20516;-55
2023/03/02 06:54:00;;;;;;;33.13;20.33;;;0.60;1.00;;;;;;5052331;28;21063;-55
2023/03/02 06:56:25;;;;;;;33.40;18.93;;;0.50;1.00;;;;;;5052458;28;20523;-57
2023/03/02 06:58:51;;;;;;;31.33;19.93;;;0.60;1.00;;;;;;5057336;28;20652;-57
2023/03/02 07:01:18;;;;;;;32.90;19.80;;;0.60;1.00;;;;;;5048092;28;20506;-54
2023/03/02 07:03:43;;;;;;;29.40;18.37;;;0.60;1.00;;;;;;5047263;28;20886;-54
2023/03/02 07:06:11;;;;;;;26.17;18.03;;;0.70;1.00;;;;;;5048579;28;20447;-53
2023/03/02 07:08:36;;;;;;;25.00;17.57;;;0.70;1.00;;;;;;5061165;28;20476;-54
2023/03/02 07:11:10;;;;;;;29.97;19.47;;;0.80;1.00;;;;;;5049205;28;20482;-55
2023/03/02 07:13:39;;;;;;;32.67;19.33;;;0.80;1.00;;;;;;5048521;28;20689;-52
2023/03/02 07:16:12;;;;;;;27.87;19.50;;;0.90;1.00;;;;;;5048882;28;20981;-53
2023/03/02 07:18:39;;;;;;;33.30;18.73;;;1.00;1.00;;;;;;5048475;28;20468;-54
2023/03/02 07:21:05;;;;;;;29.53;19.00;;;1.00;1.00;;;;;;5048050;28;20469;-54
2023/03/02 07:23:31;;;;;;;25.40;15.97;;;1.30;1.00;;;;;;5048052;28;21366;-53
2023/03/02 07:25:57;;;;;;;35.00;18.83;;;1.40;1.00;;;;;;5048393;28;20438;-54
2023/03/02 07:28:23;;;;;;;28.23;17.40;;;1.50;1.00;;;;;;5051319;28;20441;-54
2023/03/02 07:30:52;;;;;;;30.63;18.50;;;1.60;1.00;;;;;;5050808;28;20185;-55
2023/03/02 07:33:21;;;;;;;30.43;18.93;;;1.60;1.00;;;;;;5044858;28;20443;-54
2023/03/02 07:35:47;;;;;;;27.40;17.30;;;1.60;1.00;;;;;;5047492;28;20729;-55
2023/03/02 07:38:13;;;;;;;30.63;19.40;;;1.80;1.00;;;;;;5048830;28;20445;-54
2023/03/02 07:40:42;;;;;;;32.20;19.07;;;2.00;1.00;;;;;;5048914;28;20471;-52
2023/03/02 07:43:09;;;;;;;29.20;19.10;;;2.20;1.00;;;;;;5048993;28;20646;-54
2023/03/02 07:45:36;;;;;;;28.00;18.20;;;2.50;1.00;;;;;;5045140;28;20541;-52
2023/03/02 07:48:02;;;;;;;30.40;18.90;;;3.00;1.00;;;;;;5046167;28;20446;-54
2023/03/02 07:50:28;;;;;;;26.90;18.17;;;3.30;1.00;;;;;;5048266;28;20525;-54
2023/03/02 07:52:53;;;;;;;31.10;18.30;;;3.40;1.00;;;;;;5055732;28;20545;-53
2023/03/02 07:55:19;;;;;;;28.63;19.13;;;3.30;1.00;;;;;;5053691;28;20195;-57
2023/03/02 07:57:44;;;;;;;25.43;17.60;;;3.30;1.00;;;;;;5067005;28;20272;-53
2023/03/02 08:00:11;;;;;;;30.10;19.73;;;3.20;1.00;;;;;;5057194;28;20691;-52
2023/03/02 08:02:36;;;;;;;30.97;19.00;;;3.20;1.00;;;;;;5053450;28;20250;-53
2023/03/02 08:05:02;;;;;;;29.90;20.43;;;3.30;1.00;;;;;;5047139;28;20447;-55
2023/03/02 08:07:28;;;;;;;34.50;20.43;;;3.30;1.00;;;;;;5046780;28;20196;-53
2023/03/02 08:09:53;;;;;;;32.43;18.53;;;3.60;1.00;;;;;;5049427;28;20450;-54
2023/03/02 08:12:19;;;;;;;31.87;20.10;;;4.10;1.00;;;;;;5049044;28;20527;-55
2023/03/02 08:14:46;;;;;;;31.80;19.03;;;4.60;1.00;;;;;;5049112;28;20242;-54
2023/03/02 08:17:12;;;;;;;26.53;18.87;;;4.80;1.00;;;;;;5046142;28;20296;-56
2023/03/02 08:19:37;;;;;;;25.80;18.30;;;4.90;1.00;;;;;;5048038;28;21142;-55
2023/03/02 08:22:03;;;;;;;28.97;18.23;;;4.80;1.00;;;;;;5053343;28;20203;-54
2023/03/02 08:24:29;;;;;;;30.00;19.30;;;4.70;1.00;;;;;;5044417;28;20555;-54
2023/03/02 08:26:54;;;;;;;31.83;20.70;;;4.60;1.00;;;;;;5047967;28;20188;-54
2023/03/02 08:29:20;;;;;;;24.27;18.17;;;4.40;1.00;;;;;;5047805;28;20646;-53
2023/03/02 08:31:46;;;;;;;27.03;19.53;;;4.50;1.00;;;;;;5047173;28;20682;-55
2023/03/02 08:34:11;;;;;;;29.07;20.23;;;4.60;1.00;;;;;;5047580;28;20191;-54
2023/03/02 08:36:38;;;;;;;27.60;19.00;;;4.60;1.00;;;;;;5042995;28;20563;-54
2023/03/02 08:39:04;;;;;;;31.90;20.73;;;4.60;1.00;;;;;;5047046;28;20189;-53
2023/03/02 08:41:30;;;;;;;31.43;21.30;;;4.70;1.00;;;;;;5054808;28;20837;-53
2023/03/02 08:43:55;;;;;;;28.73;19.57;;;4.70;1.00;;;;;;5049655;28;20185;-53
2023/03/02 08:46:21;;;;;;;32.80;21.20;;;4.80;1.00;;;;;;5046090;28;20192;-55
2023/03/02 08:48:49;;;;;;;32.90;21.77;;;4.80;1.00;;;;;;5046596;28;20184;-55
2023/03/02 08:51:18;;;;;;;27.30;19.70;;;4.90;1.00;;;;;;5053263;28;20263;-55
2023/03/02 08:53:46;;;;;;;33.80;19.80;;;5.00;1.00;;;;;;5059100;28;20484;-55
2023/03/02 08:56:29;;;;;;;32.43;20.77;;;5.00;1.00;;;;;;5050925;28;20806;-53
2023/03/02 08:58:58;;;;;;;31.00;21.00;;;5.20;1.00;;;;;;5049633;28;20450;-54
2023/03/02 09:01:27;;;;;;;31.73;21.63;;;5.30;1.00;;;;;;5052292;28;20463;-54
2023/03/02 09:03:53;;;;;;;30.57;20.70;;;5.40;1.00;;;;;;5052748;28;20435;-54
2023/03/02 09:06:19;;;;;;;31.53;20.70;;;5.40;1.00;;;;;;5069209;28;20482;-53
2023/03/02 09:08:45;;;;;;;34.23;22.53;;;5.60;1.00;;;;;;5059613;28;20529;-53
2023/03/02 09:11:11;;;;;;;35.07;22.00;;;5.70;1.00;;;;;;5049781;28;20462;-55
2023/03/02 09:13:37;;;;;;;32.77;22.67;;;5.90;1.00;;;;;;5049581;28;20450;-55
2023/03/02 09:16:03;;;;;;;33.37;23.00;;;6.00;1.00;;;;;;5052389;28;20434;-54
2023/03/02 09:18:29;;;;;;;34.77;23.50;;;6.10;1.00;;;;;;5057965;28;20566;-53
2023/03/02 09:20:56;;;;;;;32.57;21.07;;;6.10;1.00;;;;;;5064390;28;21157;-55
2023/03/02 09:23:23;;;;;;;33.20;22.47;;;6.20;1.00;;;;;;5049543;28;20450;-54
2023/03/02 09:25:49;;;;;;;33.10;24.37;;;6.20;1.00;;;;;;5062182;28;20965;-52
2023/03/02 09:28:16;;;;;;;32.40;22.00;;;6.40;1.00;;;;;;5059099;28;20439;-53
2023/03/02 09:30:46;;;;;;;36.07;22.63;;;6.30;1.00;;;;;;5061178;28;20464;-55
2023/03/02 09:33:12;;;;;;;32.17;23.07;;;6.30;1.00;;;;;;5055271;28;20452;-53
2023/03/02 09:35:37;;;;;;;37.40;23.77;;;6.50;1.00;;;;;;5049482;28;20454;-52
2023/03/02 09:38:03;;;;;;;36.30;22.73;;;6.70;1.00;;;;;;5049498;28;20193;-54
2023/03/02 09:40:30;;;;;;;33.20;23.03;;;6.90;1.00;;;;;;5052346;28;20283;-53
2023/03/02 09:43:14;;;;;;;30.80;20.80;;;7.00;1.00;;;;;;5048078;28;20193;-55
2023/03/02 09:46:01;;;;;;;32.93;22.50;;;7.00;1.00;;;;;;5048431;28;20453;-53
2023/03/02 09:48:30;;;;;;;37.13;22.97;;;7.10;1.00;;;;;;5049097;28;20453;-53
2023/03/02 09:51:09;;;;;;;33.43;22.80;;;7.20;1.00;;;;;;5051687;28;20925;-53
2023/03/02 09:53:53;;;;;;;30.00;21.47;;;7.30;1.00;;;;;;5052996;28;20497;-52
2023/03/02 09:56:20;;;;;;;37.83;23.80;;;7.40;1.00;;;;;;5057521;28;20430;-55
2023/03/02 09:59:47;;;;;;;32.70;23.83;;;7.70;1.00;;;;;;5071717;28;21008;-53
2023/03/02 10:02:39;;;;;;;29.20;21.73;;;7.70;1.00;;;;;;4980311;28;20474;-55
2023/03/02 10:05:12;;;;;;;34.47;23.03;;;7.90;1.00;;;;;;5048942;28;20450;-54
2023/03/02 10:07:38;;;;;;;36.73;22.20;;;8.00;1.00;;;;;;5057116;28;20453;-54
2023/03/02 10:10:36;;;;;;;34.70;21.87;;;7.90;1.00;;;;;;5064443;28;20470;-54
2023/03/02 10:13:17;;;;;;;37.43;23.50;;;8.00;1.00;;;;;;5067087;28;20441;-52
2023/03/02 10:15:57;;;;;;;38.90;22.93;;;7.80;1.00;;;;;;5060760;28;20954;-53
2023/03/02 10:18:58;;;;;;;32.87;22.53;;;7.60;1.00;;;;;;5051116;28;20442;-55
2023/03/02 10:21:30;;;;;;;33.43;22.27;;;7.80;1.00;;;;;;4996379;28;20469;-54
2023/03/02 10:24:14;;;;;;;29.73;21.77;;;8.10;1.00;;;;;;5069787;28;20468;-52
2023/03/02 10:26:47;;;;;;;30.73;21.83;;;8.40;1.00;;;;;;5048412;28;20443;-53
2023/03/02 10:29:28;;;;;;;30.80;21.77;;;8.20;1.00;;;;;;5053873;28;20414;-53
2023/03/02 10:32:03;;;;;;;37.67;21.60;;;8.40;1.00;;;;;;5056773;28;20439;-54
2023/03/02 10:34:29;;;;;;;31.80;22.30;;;8.60;1.00;;;;;;5051517;28;20430;-52
2023/03/02 10:36:57;;;;;;;31.87;21.30;;;8.90;1.00;;;;;;5050902;28;20481;-55
2023/03/02 10:39:22;;;;;;;31.43;22.03;;;9.20;1.00;;;;;;5048000;28;20455;-53
2023/03/02 10:42:14;;;;;;;31.87;20.00;;;9.50;1.00;;;;;;5049525;28;20497;-53
2023/03/02 10:44:44;;;;;;;34.90;21.83;;;9.60;1.00;;;;;;5048255;28;20192;-52
2023/03/02 10:47:25;;;;;;;27.40;19.93;;;9.80;1.00;;;;;;5050806;28;20442;-55
2023/03/02 10:49:53;;;;;;;30.30;20.53;;;9.60;1.00;;;;;;5048136;28;20447;-54
2023/03/02 10:52:22;;;;;;;32.13;21.57;;;9.50;1.00;;;;;;5048698;28;20431;-54
2023/03/02 10:54:48;;;;;;;30.53;21.50;;;9.50;1.00;;;;;;5048468;28;20546;-54
2023/03/02 10:57:38;;;;;;;32.00;20.93;;;9.60;1.00;;;;;;5053462;28;20785;-53
2023/03/02 11:00:17;;;;;;;31.40;20.43;;;9.70;1.00;;;;;;5039329;28;20458;-52
2023/03/02 11:02:59;;;;;;;27.60;20.73;;;9.80;1.00;;;;;;5056536;28;20517;-53
2023/03/02 11:05:34;;;;;;;26.17;19.00;;;9.90;1.00;;;;;;5050402;28;20487;-53
2023/03/02 11:08:08;;;;;;;28.00;18.83;;;10.10;1.00;;;;;;5066138;28;20453;-55
2023/03/02 11:10:50;;;;;;;26.00;18.43;;;10.10;1.00;;;;;;5050514;28;20884;-55
2023/03/02 11:13:19;;;;;;;25.20;17.83;;;10.30;1.00;;;;;;5050880;28;20502;-52
2023/03/02 11:15:50;;;;;;;24.13;16.83;;;10.50;1.00;;;;;;5048177;28;20801;-52
2023/03/02 11:18:27;;;;;;;26.43;16.27;;;10.50;1.00;;;;;;5045792;28;21370;-55
2023/03/02 11:21:08;;;;;;;28.20;17.17;;;10.70;1.00;;;;;;5047196;28;20470;-53
2023/03/02 11:23:48;;;;;;;23.73;16.00;;;10.90;1.00;;;;;;5043103;28;20507;-51
2023/03/02 11:26:38;;;;;;;19.00;14.07;;;11.00;1.00;;;;;;5049744;28;20534;-53
2023/03/02 11:29:10;;;;;;;21.50;14.80;;;10.70;1.00;;;;;;5042458;28;20439;-53
2023/03/02 11:31:39;;;;;;;21.07;15.23;;;10.50;1.00;;;;;;5048767;28;20455;-54
2023/03/02 11:34:30;;;;;;;23.73;15.70;;;10.50;1.00;;;;;;5049165;28;20489;-55
2023/03/02 11:37:10;;;;;;;20.57;14.40;;;10.70;1.00;;;;;;5049551;28;20538;-53
2023/03/02 11:39:48;;;;;;;17.67;13.07;;;10.90;1.00;;;;;;5049287;28;20418;-54
2023/03/02 11:42:20;;;;;;;20.03;12.80;;;10.80;99.90;;;;;;5049668;28;20467;-54
2023/03/02 11:44:47;;;;;;;20.13;12.97;;;10.90;99.90;;;;;;5049680;28;20533;-54
2023/03/02 11:47:14;;;;;;;20.23;14.00;;;10.90;99.90;;;;;;5049555;28;21003;-55
2023/03/02 11:50:03;;;;;;;16.70;13.20;;;11.10;1.00;;;;;;5049715;28;20569;-53
2023/03/02 11:52:35;;;;;;;20.07;12.33;;;11.20;99.90;;;;;;5049288;28;20462;-53
2023/03/02 11:55:30;;;;;;;13.80;10.27;;;11.10;99.90;;;;;;5064964;28;20453;-56
2023/03/02 11:58:00;;;;;;;16.17;11.00;;;11.00;1.00;;;;;;5069582;28;20954;-53
2023/03/02 12:00:31;;;;;;;12.93;9.80;;;11.00;99.90;;;;;;5069247;28;20422;-54
2023/03/02 12:03:02;;;;;;;11.27;7.93;;;11.20;99.90;;;;;;5069456;28;20434;-54
2023/03/02 12:05:33;;;;;;;10.27;7.47;;;11.20;1.00;;;;;;5048152;28;20553;-53
2023/03/02 12:08:01;;;;;;;16.03;8.97;;;11.10;99.90;;;;;;5049563;28;20439;-53
2023/03/02 12:10:37;;;;;;;14.60;8.97;;;11.10;1.00;;;;;;5049147;28;20397;-55
2023/03/02 12:13:29;;;;;;;12.70;9.07;;;11.10;99.90;;;;;;5049439;28;20437;-55
2023/03/02 12:15:55;;;;;;;14.47;8.77;;;11.00;99.90;;;;;;5049105;28;20423;-54
2023/03/02 12:18:21;;;;;;;10.87;9.10;;;11.20;99.90;;;;;;5049295;28;20431;-54
2023/03/02 12:21:25;;;;;;;13.37;8.57;;;11.30;99.90;;;;;;5049243;28;20455;-54
2023/03/02 12:23:50;;;;;;;13.97;9.00;;;11.20;99.90;;;;;;5046461;28;20528;-53
2023/03/02 12:26:19;;;;;;;13.47;9.30;;;11.20;99.90;;;;;;5048375;28;20431;-55
2023/03/02 12:29:05;;;;;;;14.60;9.43;;;11.30;99.90;;;;;;5064513;28;20190;-53
2023/03/02 12:31:43;;;;;;;16.93;9.90;;;11.40;1.00;;;;;;5069016;28;20445;-55
2023/03/02 12:34:23;;;;;;;14.83;9.97;;;11.50;99.90;;;;;;5068125;28;20772;-52
2023/03/02 12:36:55;;;;;;;13.60;11.03;;;11.50;99.90;;;;;;5048995;28;20499;-53
2023/03/02 12:39:58;;;;;;;18.90;11.23;;;11.50;99.90;;;;;;5049253;28;20435;-56
2023/03/02 12:42:44;;;;;;;15.00;11.57;;;11.60;99.90;;;;;;5060276;28;20515;-54
2023/03/02 12:45:17;;;;;;;18.87;11.97;;;11.70;99.90;;;;;;5061425;28;20519;-53
2023/03/02 12:47:46;;;;;;;16.50;11.87;;;11.60;99.90;;;;;;5042633;28;20447;-54
2023/03/02 12:50:20;;;;;;;15.23;11.07;;;11.40;99.90;;;;;;5044973;28;20870;-54
2023/03/02 12:52:57;;;;;;;17.57;11.70;;;11.30;99.90;;;;;;5066795;28;20439;-55
2023/03/02 12:55:23;;;;;;;18.37;10.70;;;11.50;99.90;;;;;;5036362;28;20497;-52
2023/03/02 12:57:51;;;;;;;16.70;12.20;;;11.50;99.90;;;;;;5049039;28;20449;-53